Time;durP1;ratioP1;P1;durP2;ratioP2;P2;SDS_P1;SDS_P2;PMS_P1;PMS_P2;Temp;Humidity;BMP_temperature;BMP_pressure;BME280_temperature;BME280_humidity;BME280_pressure;Samples;Min_cycle;Max_cycle;Signal;HPM_P1;HPM_P2
2022/11/15 00:00:43;;;;;;;34.95;19.05;;;;;;;8.08;67.17;100265.00;7754355;32;37284;-82
2022/11/15 00:04:59;;;;;;;61.72;20.25;;;;;;;7.90;67.86;100256.00;7737260;32;39470;-84
2022/11/15 00:09:15;;;;;;;39.65;20.58;;;;;;;7.56;69.72;100260.47;7737820;32;40803;-84
2022/11/15 00:13:32;;;;;;;45.25;20.55;;;;;;;7.48;70.22;100258.97;7737556;32;38698;-84
2022/11/15 00:17:51;;;;;;;43.75;20.17;;;;;;;7.82;69.06;100256.38;7737800;32;36940;-83
2022/11/15 00:22:08;;;;;;;49.30;19.55;;;;;;;7.90;68.86;100260.63;7737635;32;40068;-82
2022/11/15 00:26:24;;;;;;;40.42;20.27;;;;;;;8.39;66.85;100254.69;7737354;32;40747;-82
2022/11/15 00:30:40;;;;;;;36.10;19.83;;;;;;;8.23;67.51;100235.41;7762992;32;37889;-83
2022/11/15 00:34:56;;;;;;;39.30;19.87;;;;;;;7.92;68.46;100230.47;7764409;32;37322;-82
2022/11/15 00:39:12;;;;;;;35.40;18.65;;;;;;;7.83;68.94;100235.47;7764272;32;40102;-82
2022/11/15 00:43:28;;;;;;;32.38;17.50;;;;;;;8.02;67.95;100230.66;7764239;32;39831;-83
2022/11/15 00:47:46;;;;;;;36.10;18.45;;;;;;;8.30;67.09;100227.09;7764082;32;37876;-83
2022/11/15 00:52:02;;;;;;;34.10;17.95;;;;;;;8.06;68.04;100229.12;7764194;32;37521;-83
2022/11/15 00:56:18;;;;;;;31.00;16.95;;;;;;;8.42;67.08;100224.31;7764002;32;39356;-82
2022/11/15 01:00:34;;;;;;;29.95;18.00;;;;;;;8.45;67.10;100215.69;7740773;32;40781;-83
2022/11/15 01:04:51;;;;;;;31.52;17.17;;;;;;;8.09;68.27;100212.34;7723114;32;37566;-83
2022/11/15 01:09:07;;;;;;;29.65;16.60;;;;;;;8.37;67.72;100208.75;7736772;32;36865;-83
2022/11/15 01:13:23;;;;;;;30.25;17.08;;;;;;;8.11;68.38;100210.22;7736688;32;38838;-83
2022/11/15 01:17:39;;;;;;;32.47;18.00;;;;;;;8.33;67.59;100199.44;7737688;32;40889;-83
2022/11/15 01:21:55;;;;;;;32.83;17.30;;;;;;;8.07;67.54;100203.59;7739931;32;37686;-83
2022/11/15 01:26:14;;;;;;;31.12;17.33;;;;;;;8.28;67.14;100199.38;7749798;32;37315;-83
2022/11/15 01:30:30;;;;;;;34.92;17.00;;;;;;;7.54;69.28;100197.50;7765606;32;38611;-83
2022/11/15 01:34:46;;;;;;;30.42;17.30;;;;;;;8.27;67.07;100190.38;7765335;32;40810;-82
2022/11/15 01:39:02;;;;;;;31.83;17.67;;;;;;;7.92;67.98;100189.75;7765401;32;38028;-83
2022/11/15 01:43:39;;;;;;;34.53;18.08;;;;;;;7.33;70.41;100197.09;7765418;32;37025;-82
2022/11/15 01:47:55;;;;;;;33.42;17.90;;;;;;;7.66;68.96;100192.03;7765315;32;39243;-83
2022/11/15 01:52:16;;;;;;;42.67;17.30;;;;;;;7.81;68.88;100191.47;7751399;32;40841;-83
2022/11/15 01:56:35;;;;;;;30.62;16.00;;;;;;;7.77;68.84;100193.84;7752456;32;38708;-83
2022/11/15 02:00:52;;;;;;;30.60;17.40;;;;;;;8.09;67.70;100191.44;7724743;32;37111;-82
2022/11/15 02:05:08;;;;;;;28.15;15.55;;;;;;;8.39;66.67;100184.03;7724405;32;39005;-82
2022/11/15 02:09:25;;;;;;;28.58;16.23;;;;;;;8.70;65.38;100176.37;7737963;32;40561;-83
2022/11/15 02:13:41;;;;;;;31.62;17.30;;;;;;;8.46;65.73;100177.38;7737744;32;37872;-83
2022/11/15 02:18:37;;;;;;;30.52;16.83;;;;;;;7.78;68.24;100176.50;7724028;32;37321;-83
2022/11/15 02:23:14;;;;;;;29.85;16.55;;;;;;;8.37;66.43;100170.72;7739723;32;38911;-83
2022/11/15 02:27:57;;;;;;;32.20;15.55;;;;;;;8.05;67.18;100178.59;7754154;32;20413;-82
2022/11/15 02:32:25;;;;;;;35.28;16.42;;;;;;;8.05;67.48;100174.00;7754257;32;38003;-83
2022/11/15 02:37:11;;;;;;;28.48;16.02;;;;;;;7.80;68.42;100170.84;7753114;32;38000;-83
2022/11/15 02:41:50;;;;;;;35.60;16.92;;;;;;;7.94;68.08;100165.94;7760495;32;39399;-83
2022/11/15 02:47:12;;;;;;;28.50;16.05;;;;;;;7.56;69.60;100162.00;7753012;32;40744;-83
2022/11/15 02:51:02;;;;;;;29.65;15.48;;;;;;;7.82;68.56;100150.50;7749324;32;38015;-82
2022/11/15 02:55:41;;;;;;;28.42;15.43;;;;;;;7.60;69.24;100144.97;7738657;32;36991;-83
2022/11/15 03:00:06;;;;;;;25.55;13.80;;;;;;;7.78;68.89;100143.09;7726463;32;39873;-83
2022/11/15 03:04:46;;;;;;;24.17;14.35;;;;;;;7.74;69.20;100147.38;7738683;32;39579;-83
2022/11/15 03:09:29;;;;;;;26.08;14.70;;;;;;;7.57;69.69;100131.91;7707033;32;38658;-83
2022/11/15 03:13:54;;;;;;;;;;;;;;;7.65;69.55;100130.69;7738890;32;37969;-83
2022/11/15 03:18:22;;;;;;;34.35;15.45;;;;;;;8.19;67.73;100122.91;7738820;32;39153;-82
2022/11/15 03:22:42;;;;;;;25.30;14.18;;;;;;;7.81;68.75;100121.75;7740345;32;39853;-82
2022/11/15 03:27:00;;;;;;;26.00;15.02;;;;;;;8.14;67.95;100120.09;7737557;32;39110;-83
2022/11/15 03:35:54;;;;;;;25.20;13.20;;;;;;;7.50;70.51;100123.91;7737226;32;39976;-82
2022/11/15 03:40:10;;;;;;;23.70;13.48;;;;;;;8.07;68.72;100122.97;7736104;32;40844;-82
2022/11/15 03:44:46;;;;;;;23.52;13.43;;;;;;;8.42;67.99;100105.59;7738037;32;38706;-83
2022/11/15 03:49:16;;;;;;;24.58;13.45;;;;;;;8.16;69.08;100107.09;7729403;32;37420;-83
2022/11/15 03:53:33;;;;;;;21.40;12.85;;;;;;;8.50;68.22;100098.09;7710254;32;39889;-83
2022/11/15 03:57:53;;;;;;;23.55;13.20;;;;;;;8.96;66.38;100085.09;7709897;32;41002;-83
2022/11/15 04:02:09;;;;;;;25.05;12.60;;;;;;;8.91;66.00;100088.56;7711155;32;37785;-83
2022/11/15 04:06:26;;;;;;;22.35;12.25;;;;;;;8.84;65.84;100090.66;7711195;32;38117;-83
2022/11/15 04:10:42;;;;;;;24.40;13.52;;;;;;;9.00;65.63;100102.53;7711081;32;40321;-83
2022/11/15 04:15:06;;;;;;;23.65;13.90;;;;;;;8.50;67.43;100087.22;7710911;32;40917;-83
2022/11/15 04:24:13;;;;;;;23.25;13.52;;;;;;;8.48;67.82;100090.19;7743692;32;37163;-83
2022/11/15 04:28:30;;;;;;;24.35;14.32;;;;;;;8.09;69.03;100082.81;7764529;32;40126;-83
2022/11/15 04:32:46;;;;;;;22.42;12.55;;;;;;;8.39;68.25;100075.38;7764493;32;40881;-83
2022/11/15 04:37:11;;;;;;;22.80;13.85;;;;;;;8.21;68.37;100071.88;7764364;32;38852;-83
2022/11/15 04:41:28;;;;;;;24.63;13.70;;;;;;;8.16;68.84;100082.66;7764429;32;37400;-83
2022/11/15 04:45:45;;;;;;;24.27;13.85;;;;;;;8.00;69.54;100075.34;7761209;32;39810;-80
2022/11/15 04:50:01;;;;;;;22.20;13.20;;;;;;;8.11;69.03;100076.34;7737202;32;39940;-83
2022/11/15 04:54:17;;;;;;;24.15;13.85;;;;;;;8.01;69.36;100074.28;7737052;32;38820;-82
2022/11/15 04:58:33;;;;;;;25.20;13.95;;;;;;;7.63;70.80;100076.66;7737085;32;37470;-83
2022/11/15 05:07:25;;;;;;;21.25;13.00;;;;;;;8.54;67.74;100064.75;7736897;32;40000;-82
2022/11/15 05:11:42;;;;;;;23.30;13.57;;;;;;;8.78;66.79;100084.34;7736612;32;38672;-82
2022/11/15 05:15:58;;;;;;;23.80;13.50;;;;;;;8.60;67.00;100081.94;7739119;32;37641;-82
2022/11/15 05:20:14;;;;;;;21.27;13.40;;;;;;;8.73;67.03;100069.88;7763453;32;39381;-83
2022/11/15 05:24:30;;;;;;;22.52;12.80;;;;;;;8.73;66.73;100069.88;7762846;32;40828;-83
2022/11/15 05:28:46;;;;;;;24.17;12.77;;;;;;;8.95;65.93;100070.69;7763202;32;38013;-83
2022/11/15 05:33:03;;;;;;;21.17;11.65;;;;;;;8.95;65.45;100070.69;7763310;32;37770;-84
2022/11/15 05:37:19;;;;;;;23.65;12.95;;;;;;;8.88;65.91;100066.50;7762989;32;39564;-82
2022/11/15 05:41:49;;;;;;;23.55;13.25;;;;;;;9.11;65.20;100060.00;7762399;32;40596;-83
2022/11/15 05:46:05;;;;;;;22.08;12.52;;;;;;;8.96;65.76;100053.28;7728987;32;37978;-84
2022/11/15 05:50:22;;;;;;;22.13;12.10;;;;;;;9.54;63.65;100041.91;7721974;32;37153;-83
2022/11/15 05:54:38;;;;;;;20.95;12.07;;;;;;;9.52;63.43;100038.59;7721741;32;40020;-83
2022/11/15 05:58:55;;;;;;;19.70;11.68;;;;;;;9.45;63.38;100038.84;7721768;32;39644;-84
2022/11/15 06:03:14;;;;;;;20.77;12.00;;;;;;;9.49;63.18;100045.41;7723116;32;37543;-83
2022/11/15 06:07:31;;;;;;;21.20;12.37;;;;;;;9.34;63.85;100046.06;7725568;32;36925;-83
2022/11/15 06:11:47;;;;;;;21.00;12.43;;;;;;;9.45;63.33;100032.56;7739973;32;39466;-83
2022/11/15 06:16:04;;;;;;;19.55;12.63;;;;;;;9.36;63.46;100041.19;7739899;32;39996;-84
2022/11/15 06:20:20;;;;;;;25.62;13.57;;;;;;;9.15;64.18;100033.91;7739186;32;38096;-83
2022/11/15 06:24:36;;;;;;;25.25;13.23;;;;;;;9.35;63.81;100038.75;7739025;32;36954;-84
2022/11/15 06:28:53;;;;;;;26.40;14.57;;;;;;;9.15;63.97;100045.59;7739105;32;39100;-84
2022/11/15 06:33:09;;;;;;;27.73;13.88;;;;;;;9.29;63.86;100051.47;7738998;32;39872;-83
2022/11/15 06:37:25;;;;;;;23.23;13.38;;;;;;;9.60;62.65;100051.75;7738720;32;38809;-83
2022/11/15 06:41:41;;;;;;;24.90;14.38;;;;;;;9.64;62.53;100046.59;7738769;32;37540;-83
2022/11/15 06:46:01;;;;;;;24.60;13.82;;;;;;;9.61;62.56;100047.97;7746032;32;39351;-82
2022/11/15 06:50:18;;;;;;;23.25;14.05;;;;;;;9.58;63.33;100043.84;7765837;32;39883;-83
2022/11/15 06:54:35;;;;;;;25.92;15.00;;;;;;;9.67;63.41;100044.19;7758197;32;38802;-82
2022/11/15 06:58:51;;;;;;;26.65;14.55;;;;;;;9.54;63.52;100048.16;7738684;32;37770;-82
2022/11/15 07:03:07;;;;;;;27.20;15.52;;;;;;;9.73;62.53;100050.50;7761492;32;40107;-82
2022/11/15 07:07:23;;;;;;;23.70;13.90;;;;;;;9.67;62.83;100038.75;7765740;32;39937;-82
2022/11/15 07:11:40;;;;;;;26.58;15.07;;;;;;;9.88;62.04;100033.44;7765408;32;37966;-82
2022/11/15 07:15:56;;;;;;;25.45;15.52;;;;;;;9.78;62.16;100032.31;7763494;32;37232;-83
2022/11/15 07:20:13;;;;;;;25.88;15.70;;;;;;;9.65;64.62;100032.75;7764143;32;39260;-81
2022/11/15 07:24:29;;;;;;;28.27;15.63;;;;;;;9.73;62.79;100045.06;7764742;32;39977;-81
2022/11/15 07:28:45;;;;;;;28.10;15.93;;;;;;;9.58;63.77;100051.19;7739000;32;38971;-83
2022/11/15 07:33:02;;;;;;;24.48;14.40;;;;;;;9.27;64.12;100037.28;7738415;32;37892;-83
2022/11/15 07:37:18;;;;;;;25.00;15.35;;;;;;;9.74;62.17;100025.75;7738280;32;39264;-83
2022/11/15 07:41:34;;;;;;;28.12;15.30;;;;;;;10.14;61.25;100024.38;7757744;32;40153;-82
2022/11/15 07:45:51;;;;;;;23.70;14.27;;;;;;;9.75;62.31;100027.37;7731385;32;38654;-83
2022/11/15 07:50:13;;;;;;;28.55;16.20;;;;;;;10.17;61.25;100017.56;7723349;32;35827;-83
2022/11/15 07:54:30;;;;;;;27.30;17.08;;;;;;;10.01;61.52;100010.41;7737626;32;39525;-84
2022/11/15 07:58:46;;;;;;;29.85;17.70;;;;;;;9.80;62.02;100023.06;7737956;32;40726;-85
2022/11/15 08:03:05;;;;;;;29.30;16.83;;;;;;;9.89;61.84;100019.59;7737998;32;37996;-82
2022/11/15 08:07:21;;;;;;;27.42;15.77;;;;;;;9.75;62.41;100008.31;7738101;32;37627;-84
2022/11/15 08:11:37;;;;;;;30.05;17.15;;;;;;;10.22;61.03;99997.72;7737790;32;39372;-84
2022/11/15 08:16:02;;;;;;;30.95;18.08;;;;;;;10.11;63.55;100000.37;7737126;32;40796;-82
2022/11/15 08:20:19;;;;;;;32.78;18.25;;;;;;;9.91;62.27;99997.53;7737922;32;37723;-81
2022/11/15 08:24:35;;;;;;;31.37;18.45;;;;;;;9.81;62.91;100000.19;7737728;32;37273;-82
2022/11/15 08:28:51;;;;;;;34.25;18.75;;;;;;;9.92;63.33;99985.56;7737277;32;40183;-82
2022/11/15 08:33:11;;;;;;;29.60;17.67;;;;;;;9.94;63.68;99980.69;7723975;32;39849;-82
2022/11/15 08:37:27;;;;;;;31.90;18.85;;;;;;;9.56;65.83;99977.16;7724552;32;38864;-81
2022/11/15 08:41:44;;;;;;;33.35;18.08;;;;;;;10.15;63.70;99976.16;7743580;32;37946;-82
2022/11/15 08:46:00;;;;;;;34.53;19.10;;;;;;;10.07;64.22;99974.78;7763568;32;39620;-82
2022/11/15 08:50:16;;;;;;;35.17;19.65;;;;;;;9.62;65.20;99969.84;7764367;32;39599;-82
2022/11/15 08:54:33;;;;;;;33.80;20.05;;;;;;;9.88;65.06;99970.81;7764290;32;38400;-82
2022/11/15 08:58:49;;;;;;;31.83;18.62;;;;;;;9.57;66.02;99965.16;7764688;32;38027;-82
2022/11/15 09:03:06;;;;;;;34.88;19.27;;;;;;;9.86;64.93;99956.66;7763789;32;39401;-83
2022/11/15 09:07:23;;;;;;;32.00;19.10;;;;;;;10.14;64.05;99945.38;7748651;32;40576;-82
2022/11/15 09:11:40;;;;;;;33.03;18.85;;;;;;;9.86;64.45;99938.41;7762943;32;38538;-82
2022/11/15 09:16:01;;;;;;;34.60;20.58;;;;;;;10.01;64.49;99940.41;7763611;32;36887;-82
2022/11/15 09:20:17;;;;;;;30.23;18.77;;;;;;;10.01;64.29;99939.59;7749973;32;39381;-80
2022/11/15 09:24:34;;;;;;;36.35;20.08;;;;;;;9.75;65.27;99942.97;7763552;32;39635;-83
2022/11/15 09:28:50;;;;;;;35.33;19.02;;;;;;;9.65;65.87;99944.81;7763318;32;38017;-83
2022/11/15 09:33:11;;;;;;;31.77;18.85;;;;;;;9.75;65.29;99945.69;7763415;32;37194;-82
2022/11/15 09:37:27;;;;;;;35.03;19.35;;;;;;;10.31;63.41;99931.59;7763550;32;39376;-83
2022/11/15 09:41:47;;;;;;;30.45;18.33;;;;;;;10.08;63.74;99918.38;7766851;32;40431;-82
2022/11/15 09:46:24;;;;;;;30.88;18.27;;;;;;;10.18;63.54;99912.16;7766724;32;38033;-82
2022/11/15 09:50:50;;;;;;;30.25;17.75;;;;;;;10.12;63.63;99901.25;7766772;32;37324;-82
2022/11/15 09:55:09;;;;;;;30.10;18.08;;;;;;;10.21;63.35;99900.72;7766837;32;38987;-83
2022/11/15 09:59:49;;;;;;;34.22;17.87;;;;;;;9.80;63.95;99904.09;7752887;32;39878;-81
2022/11/15 10:04:06;;;;;;;31.40;17.87;;;;;;;9.89;64.14;99912.56;7766559;32;38597;-80
2022/11/15 10:08:50;;;;;;;28.35;17.30;;;;;;;10.01;63.92;99915.91;7766617;32;37715;-80
2022/11/15 10:13:14;;;;;;;34.55;18.48;;;;;;;10.19;63.48;99917.31;7766472;32;39318;-83
2022/11/15 10:17:42;;;;;;;30.40;17.55;;;;;;;10.15;64.57;99908.87;7753068;32;40819;-83
2022/11/15 10:21:58;;;;;;;28.45;17.77;;;;;;;10.01;64.31;99894.09;7766096;32;38157;-83
2022/11/15 10:26:17;;;;;;;32.13;18.30;;;;;;;10.50;63.02;99885.59;7766084;32;37033;-83
2022/11/15 10:30:45;;;;;;;30.27;17.35;;;;;;;10.81;62.19;99872.00;7752903;32;37392;-83
2022/11/15 10:35:15;;;;;;;34.03;19.27;;;;;;;10.54;63.31;99869.53;7766147;32;40836;-83
2022/11/15 10:39:33;;;;;;;32.08;18.40;;;;;;;10.88;61.64;99853.47;7753862;32;38200;-83
2022/11/15 10:44:20;;;;;;;32.80;18.17;;;;;;;10.98;61.48;99851.84;7752023;32;37283;-83
2022/11/15 10:48:36;;;;;;;27.30;18.05;;;;;;;10.93;61.72;99846.38;7765868;32;40008;-84
2022/11/15 10:52:53;;;;;;;32.10;18.77;;;;;;;10.65;62.79;99834.91;7765886;32;39572;-83
2022/11/15 10:57:13;;;;;;;35.47;19.08;;;;;;;10.58;62.94;99821.53;7765589;32;37979;-83
2022/11/15 11:01:29;;;;;;;35.58;19.45;;;;;;;10.12;64.36;99822.25;7752075;32;38240;-83
2022/11/15 11:05:46;;;;;;;30.40;18.45;;;;;;;10.41;62.98;99810.06;7765730;32;39331;-84
2022/11/15 11:10:21;;;;;;;36.60;18.55;;;;;;;10.77;62.16;99813.66;7751806;32;40744;-83
2022/11/15 11:14:59;;;;;;;33.80;19.45;;;;;;;10.42;63.58;99804.34;7755183;32;38311;-83
2022/11/15 11:19:35;;;;;;;32.50;19.65;;;;;;;10.48;63.32;99805.16;7765609;32;37472;-83
2022/11/15 11:23:58;;;;;;;30.65;18.35;;;;;;;10.85;61.82;99795.94;7765555;32;39462;-83
2022/11/15 11:28:52;;;;;;;29.30;18.15;;;;;;;10.62;62.84;99794.56;7752228;32;40760;-83
2022/11/15 11:33:31;;;;;;;30.70;18.90;;;;;;;10.88;62.33;99787.19;7742843;32;37549;-83
2022/11/15 11:37:53;;;;;;;31.95;18.73;;;;;;;10.64;63.40;99797.81;7753063;32;37997;-83
2022/11/15 11:43:05;;;;;;;28.50;17.45;;;;;;;11.03;62.38;99789.91;7751659;32;39300;-83
2022/11/15 11:47:30;;;;;;;34.38;19.40;;;;;;;10.90;62.95;99783.09;7760189;32;39894;-82
2022/11/15 11:51:59;;;;;;;30.73;17.42;;;;;;;10.81;63.03;99782.00;7765302;32;37896;-82
2022/11/15 11:56:32;;;;;;;30.35;17.20;;;;;;;11.20;62.00;99775.16;7765296;32;37987;-83
2022/11/15 12:01:04;;;;;;;26.60;16.98;;;;;;;11.10;61.74;99762.34;7764469;32;39416;-83
2022/11/15 12:05:41;;;;;;;31.62;17.73;;;;;;;11.04;61.75;99768.91;7765098;32;40930;-82
2022/11/15 12:10:16;;;;;;;31.95;18.62;;;;;;;11.06;61.95;99750.34;7742360;32;37972;-84
2022/11/15 12:14:42;;;;;;;33.67;18.25;;;;;;;11.12;62.01;99749.22;7762816;32;37424;-83
2022/11/15 12:19:03;;;;;;;34.70;18.45;;;;;;;11.01;62.60;99747.63;7753298;32;40109;-83
2022/11/15 12:23:32;;;;;;;35.60;19.23;;;;;;;11.04;62.35;99730.72;7743207;32;41082;-82
2022/11/15 12:27:56;;;;;;;32.38;19.83;;;;;;;11.19;62.03;99727.13;7734952;32;38049;-84
2022/11/15 12:32:26;;;;;;;29.70;18.60;;;;;;;11.05;62.31;99737.78;7724665;32;37612;-83
2022/11/15 12:36:44;;;;;;;31.80;19.48;;;;;;;10.74;63.64;99721.47;7742035;32;39525;-84
2022/11/15 12:41:17;;;;;;;32.08;18.70;;;;;;;10.82;63.35;99722.84;7744422;32;39858;-83
2022/11/15 12:45:35;;;;;;;;;;;;;;;11.03;62.85;99712.69;7746987;32;37982;-83
2022/11/15 12:49:52;;;;;;;32.72;19.42;;;;;;;11.05;62.58;99699.59;7737670;32;36942;-84
2022/11/15 12:54:23;;;;;;;33.85;19.80;;;;;;;10.77;63.92;99696.37;7736163;32;39330;-85
2022/11/15 12:59:02;;;;;;;36.20;21.05;;;;;;;10.40;65.20;99688.50;7737141;32;40822;-82
2022/11/15 13:03:24;;;;;;;33.42;19.25;;;;;;;10.35;66.09;99692.06;7744279;32;37987;-82
2022/11/15 13:07:40;;;;;;;30.90;18.48;;;;;;;10.93;63.60;99680.00;7759375;32;37985;-82
2022/11/15 13:11:57;;;;;;;33.50;19.60;;;;;;;10.90;63.30;99679.47;7763807;32;39217;-83
2022/11/15 13:16:20;;;;;;;32.83;19.25;;;;;;;10.59;64.79;99677.88;7730140;32;40772;-82
2022/11/15 13:20:36;;;;;;;35.03;21.13;;;;;;;10.38;66.21;99675.16;7726288;32;38050;-83
2022/11/15 13:24:53;;;;;;;35.47;21.10;;;;;;;10.78;65.31;99670.75;7738930;32;36832;-84
2022/11/15 13:29:20;;;;;;;33.80;19.05;;;;;;;10.50;66.19;99670.25;7739388;32;40030;-82
2022/11/15 13:33:37;;;;;;;35.58;20.65;;;;;;;10.47;66.02;99673.53;7726224;32;40742;-83
2022/11/15 13:37:55;;;;;;;32.17;20.52;;;;;;;10.13;67.64;99663.16;7725790;32;38882;-83
2022/11/15 13:42:16;;;;;;;34.72;20.67;;;;;;;10.41;66.79;99647.38;7739766;32;38038;-82
2022/11/15 13:46:33;;;;;;;34.90;21.10;;;;;;;10.59;66.19;99656.91;7739837;32;39484;-82
2022/11/15 13:50:49;;;;;;;32.80;19.62;;;;;;;10.24;67.80;99653.06;7739689;32;40833;-80
2022/11/15 13:55:18;;;;;;;40.05;21.15;;;;;;;10.06;68.41;99654.44;7739446;32;38709;-80
2022/11/15 13:59:44;;;;;;;32.30;19.62;;;;;;;9.90;68.50;99648.16;7725979;32;37701;-80
2022/11/15 14:04:01;;;;;;;35.55;20.25;;;;;;;10.34;66.95;99646.81;7739621;32;39334;-80
2022/11/15 14:08:20;;;;;;;34.50;20.55;;;;;;;10.38;66.44;99645.19;7725741;32;39606;-80
2022/11/15 14:12:36;;;;;;;38.42;21.15;;;;;;;10.27;67.06;99635.37;7739292;32;38102;-81
2022/11/15 14:17:00;;;;;;;39.50;21.95;;;;;;;10.04;68.04;99634.03;7739523;32;37061;-83
2022/11/15 14:21:17;;;;;;;33.03;19.15;;;;;;;10.37;66.89;99624.50;7726493;32;40149;-80
2022/11/15 14:25:35;;;;;;;35.90;20.95;;;;;;;9.94;68.00;99627.47;7737833;32;39669;-83
2022/11/15 14:29:51;;;;;;;37.30;19.58;;;;;;;10.01;67.35;99616.31;7739125;32;37917;-85
2022/11/15 14:34:09;;;;;;;41.40;22.40;;;;;;;10.37;66.46;99619.03;7739143;32;37179;-82
2022/11/15 14:38:26;;;;;;;35.75;21.42;;;;;;;10.10;67.20;99620.09;7739037;32;40214;-83
2022/11/15 14:42:44;;;;;;;34.63;20.77;;;;;;;9.94;67.81;99607.59;7738910;32;40038;-81
2022/11/15 14:47:03;;;;;;;35.30;19.87;;;;;;;10.34;66.42;99606.75;7736323;32;37965;-82
2022/11/15 14:51:19;;;;;;;40.30;21.35;;;;;;;10.06;66.80;99608.12;7736639;32;36800;-81
2022/11/15 14:55:36;;;;;;;31.83;19.58;;;;;;;9.80;67.67;99590.16;7738362;32;39359;-81
2022/11/15 14:59:52;;;;;;;32.72;19.87;;;;;;;9.69;67.70;99583.88;7724227;32;39989;-83
2022/11/15 15:04:11;;;;;;;36.63;22.48;;;;;;;10.11;66.53;99588.25;7738361;32;37665;-83
2022/11/15 15:08:27;;;;;;;39.92;22.35;;;;;;;10.00;67.00;99586.59;7724571;32;36609;-81
2022/11/15 15:12:43;;;;;;;38.60;23.25;;;;;;;10.02;66.59;99582.53;7738432;32;40123;-83
2022/11/15 15:17:00;;;;;;;46.05;23.38;;;;;;;10.00;66.57;99587.41;7724547;32;39905;-81
2022/11/15 15:21:30;;;;;;;44.38;25.05;;;;;;;9.91;66.79;99567.28;7737792;32;37977;-82
2022/11/15 15:25:52;;;;;;;47.80;25.12;;;;;;;9.75;67.81;99577.34;7738117;32;38302;-82
2022/11/15 15:30:09;;;;;;;43.15;23.77;;;;;;;9.66;67.98;99577.09;7738111;32;39151;-82
2022/11/15 15:34:26;;;;;;;44.13;24.55;;;;;;;9.63;68.32;99583.06;7737970;32;39965;-82
2022/11/15 15:38:42;;;;;;;44.90;24.75;;;;;;;9.54;68.33;99573.81;7736662;32;37931;-83
2022/11/15 15:42:58;;;;;;;44.45;23.77;;;;;;;9.65;68.75;99577.34;7738376;32;37216;-82
2022/11/15 15:47:18;;;;;;;41.05;23.33;;;;;;;10.03;67.21;99559.66;7738125;32;38942;-81
2022/11/15 15:51:34;;;;;;;43.35;22.42;;;;;;;9.67;68.35;99565.09;7724359;32;40111;-82
2022/11/15 15:55:50;;;;;;;46.35;24.63;;;;;;;9.87;67.64;99556.12;7737906;32;38842;-83
2022/11/15 16:00:08;;;;;;;44.08;23.77;;;;;;;10.01;67.15;99556.38;7737808;32;36880;-82
2022/11/15 16:04:25;;;;;;;42.85;23.60;;;;;;;9.31;69.04;99565.06;7737918;32;41304;-82
2022/11/15 16:08:41;;;;;;;41.08;23.02;;;;;;;9.80;67.79;99560.22;7737679;32;39924;-82
2022/11/15 16:13:18;;;;;;;38.38;22.67;;;;;;;9.94;66.98;99561.28;7737184;32;39132;-82
2022/11/15 16:17:43;;;;;;;44.17;23.48;;;;;;;9.95;67.01;99557.47;7737399;32;38034;-83
2022/11/15 16:22:00;;;;;;;42.35;23.08;;;;;;;9.89;67.11;99550.41;7737563;32;39293;-83
2022/11/15 16:26:28;;;;;;;36.35;21.20;;;;;;;9.64;67.84;99552.03;7737349;32;39873;-82
2022/11/15 16:30:44;;;;;;;37.40;21.70;;;;;;;9.53;68.31;99553.09;7711383;32;37539;-81
2022/11/15 16:35:00;;;;;;;35.30;20.12;;;;;;;9.81;67.20;99551.75;7737715;32;37763;-82
2022/11/15 16:39:18;;;;;;;38.95;20.70;;;;;;;9.65;67.59;99564.53;7737057;32;39772;-83
2022/11/15 16:43:34;;;;;;;39.35;20.83;;;;;;;9.83;66.88;99544.16;7737070;32;39984;-83
2022/11/15 16:47:51;;;;;;;33.33;19.60;;;;;;;9.97;66.90;99552.59;7736219;32;39153;-82
2022/11/15 16:52:08;;;;;;;35.05;20.77;;;;;;;9.83;67.10;99549.59;7736804;32;37448;-83
2022/11/15 16:56:29;;;;;;;40.17;20.10;;;;;;;10.01;66.21;99544.69;7737185;32;39290;-82
2022/11/15 17:00:49;;;;;;;35.72;20.23;;;;;;;9.93;66.57;99538.69;7736582;32;40835;-83
2022/11/15 17:05:05;;;;;;;30.60;19.00;;;;;;;9.78;67.06;99533.25;7736807;32;38689;-85
2022/11/15 17:09:26;;;;;;;36.35;20.05;;;;;;;9.54;67.91;99525.62;7736549;32;37399;-85
2022/11/15 17:13:43;;;;;;;37.30;20.30;;;;;;;9.66;67.33;99528.09;7736652;32;39302;-83
2022/11/15 17:17:59;;;;;;;32.10;19.95;;;;;;;9.71;67.28;99530.81;7736246;32;40045;-83
2022/11/15 17:22:15;;;;;;;37.05;20.48;;;;;;;9.87;66.51;99533.53;7736041;32;37873;-84
2022/11/15 17:26:32;;;;;;;36.72;21.27;;;;;;;9.77;66.65;99524.25;7736283;32;37215;-82
2022/11/15 17:30:55;;;;;;;34.05;19.95;;;;;;;9.71;66.75;99525.38;7735825;32;39863;-83
2022/11/15 17:35:12;;;;;;;35.67;20.37;;;;;;;9.53;67.59;99512.28;7735985;32;40847;-81
2022/11/15 17:39:30;;;;;;;34.50;18.80;;;;;;;9.73;66.51;99506.84;7735563;32;38074;-83
2022/11/15 17:43:47;;;;;;;33.55;20.12;;;;;;;10.07;65.32;99509.00;7735800;32;36935;-82
2022/11/15 17:48:03;;;;;;;40.50;20.27;;;;;;;9.85;66.11;99508.47;7735549;32;39044;-82
2022/11/15 17:52:20;;;;;;;33.47;19.23;;;;;;;9.74;66.90;99508.50;7735862;32;38168;-82
2022/11/15 17:56:42;;;;;;;44.67;20.83;;;;;;;9.99;65.80;99498.66;7735320;32;38055;-83
2022/11/15 18:01:20;;;;;;;37.33;21.45;;;;;;;9.55;67.56;99494.62;7737782;32;37274;-83
2022/11/15 18:05:36;;;;;;;46.30;23.02;;;;;;;9.74;67.16;99486.72;7738241;32;39862;-81
2022/11/15 18:09:53;;;;;;;37.78;21.62;;;;;;;10.19;71.06;99475.97;7739440;32;39594;-83
2022/11/15 18:14:13;;;;;;;33.97;20.58;;;;;;;10.21;66.89;99468.37;7754469;32;38728;-83
2022/11/15 18:18:34;;;;;;;43.70;22.48;;;;;;;9.99;66.54;99471.41;7752245;32;37513;-83
2022/11/15 18:22:53;;;;;;;42.05;22.70;;;;;;;9.94;66.49;99464.06;7752367;32;38976;-84
2022/11/15 18:27:09;;;;;;;40.65;22.55;;;;;;;10.09;66.14;99448.78;7765727;32;38931;-82
2022/11/15 18:31:27;;;;;;;41.42;22.10;;;;;;;10.32;65.11;99455.56;7752054;32;38725;-83
2022/11/15 18:35:43;;;;;;;45.47;22.50;;;;;;;10.21;65.41;99451.19;7765976;32;36980;-83
2022/11/15 18:39:59;;;;;;;42.47;22.80;;;;;;;10.22;65.60;99452.84;7765702;32;40077;-83
2022/11/15 18:44:17;;;;;;;48.40;24.30;;;;;;;10.34;64.99;99437.00;7765866;32;39972;-83
2022/11/15 18:48:38;;;;;;;48.53;24.80;;;;;;;10.10;65.67;99440.31;7765562;32;38422;-83
2022/11/15 18:52:54;;;;;;;53.30;25.85;;;;;;;9.85;66.54;99451.28;7765629;32;37155;-83
2022/11/15 18:57:10;;;;;;;49.13;25.12;;;;;;;9.71;67.11;99457.31;7765566;32;39129;-82
2022/11/15 19:01:35;;;;;;;48.85;24.12;;;;;;;9.94;67.21;99453.19;7765454;32;39585;-83
2022/11/15 19:05:51;;;;;;;50.22;24.90;;;;;;;9.97;66.77;99446.38;7761633;32;38599;-82
2022/11/15 19:10:09;;;;;;;48.28;23.60;;;;;;;9.66;67.92;99441.00;7758501;32;37229;-83
2022/11/15 19:14:26;;;;;;;48.30;23.90;;;;;;;9.76;67.14;99435.53;7750995;32;37835;-84
2022/11/15 19:18:42;;;;;;;48.83;25.40;;;;;;;9.47;68.21;99434.44;7751800;32;39910;-85
2022/11/15 19:22:59;;;;;;;49.55;24.58;;;;;;;9.72;67.58;99412.66;7762864;32;37569;-86
2022/11/15 19:27:15;;;;;;;44.45;22.27;;;;;;;10.02;66.52;99400.06;7746371;32;37452;-87
2022/11/15 19:31:31;;;;;;;49.60;22.85;;;;;;;9.89;66.55;99406.09;7741790;32;39369;-86
2022/11/15 19:35:47;;;;;;;44.50;22.02;;;;;;;9.80;67.22;99408.56;7738429;32;40734;-85
2022/11/15 19:40:04;;;;;;;47.22;23.77;;;;;;;9.93;66.43;99407.16;7738355;32;37853;-82
2022/11/15 19:44:21;;;;;;;54.28;25.92;;;;;;;9.80;67.05;99399.59;7737965;32;37405;-82
2022/11/15 19:48:37;;;;;;;47.05;22.05;;;;;;;9.73;66.79;99397.97;7738247;32;39990;-83
2022/11/15 19:52:54;;;;;;;41.20;21.08;;;;;;;9.91;66.62;99396.53;7744253;32;40731;-84
2022/11/15 19:57:10;;;;;;;38.90;20.08;;;;;;;9.88;66.68;99396.28;7737797;32;38686;-84
2022/11/15 20:01:31;;;;;;;39.38;19.75;;;;;;;9.64;67.53;99396.91;7737886;32;38039;-84
2022/11/15 20:05:47;;;;;;;48.22;24.37;;;;;;;9.51;68.24;99400.19;7738003;32;38391;-83
2022/11/15 20:10:04;;;;;;;45.65;21.25;;;;;;;9.43;68.54;99396.09;7737915;32;40772;-83
2022/11/15 20:14:20;;;;;;;34.33;19.83;;;;;;;9.88;67.13;99377.22;7737703;32;38687;-82